sensor_id;sensor_type;location;lat;lon;timestamp;pressure;altitude;pressure_sealevel;temperature;humidity
45731;BME280;31440;48.584;13.460;2023-01-29T00:00:10;97760.97;;;-0.89;100.00
45731;BME280;31440;48.584;13.460;2023-01-29T00:03:17;97768.06;;;-0.78;100.00
45731;BME280;31440;48.584;13.460;2023-01-29T00:06:22;97779.28;;;-1.09;100.00
45731;BME280;31440;48.584;13.460;2023-01-29T00:09:27;97771.69;;;-1.06;100.00
45731;BME280;31440;48.584;13.460;2023-01-29T00:12:32;97773.94;;;-1.21;100.00
45731;BME280;31440;48.584;13.460;2023-01-29T00:15:36;97761.09;;;-0.85;100.00
45731;BME280;31440;48.584;13.460;2023-01-29T00:18:41;97774.94;;;-1.14;100.00
45731;BME280;31440;48.584;13.460;2023-01-29T00:21:46;97776.25;;;-1.32;100.00
45731;BME280;31440;48.584;13.460;2023-01-29T00:24:50;97769.63;;;-1.23;100.00
45731;BME280;31440;48.584;13.460;2023-01-29T00:27:55;97771.50;;;-1.16;100.00
45731;BME280;31440;48.584;13.460;2023-01-29T00:31:10;97772.09;;;-1.26;100.00
45731;BME280;31440;48.584;13.460;2023-01-29T00:34:15;97769.91;;;-1.49;100.00
45731;BME280;31440;48.584;13.460;2023-01-29T00:37:20;97764.00;;;-1.48;100.00
45731;BME280;31440;48.584;13.460;2023-01-29T00:40:25;97770.47;;;-1.60;100.00
45731;BME280;31440;48.584;13.460;2023-01-29T00:43:30;97772.84;;;-1.68;100.00
45731;BME280;31440;48.584;13.460;2023-01-29T00:46:53;97761.88;;;-1.66;100.00
45731;BME280;31440;48.584;13.460;2023-01-29T00:50:03;97766.94;;;-1.67;100.00
45731;BME280;31440;48.584;13.460;2023-01-29T00:53:08;97775.59;;;-1.95;100.00
45731;BME280;31440;48.584;13.460;2023-01-29T00:56:13;97763.06;;;-1.51;100.00
45731;BME280;31440;48.584;13.460;2023-01-29T00:59:17;97765.50;;;-1.56;100.00
45731;BME280;31440;48.584;13.460;2023-01-29T01:02:24;97715.28;;;-1.94;100.00
45731;BME280;31440;48.584;13.460;2023-01-29T01:05:47;97767.59;;;-1.74;100.00
45731;BME280;31440;48.584;13.460;2023-01-29T01:08:52;97757.47;;;-1.71;100.00
45731;BME280;31440;48.584;13.460;2023-01-29T01:12:15;97764.56;;;-1.94;100.00
45731;BME280;31440;48.584;13.460;2023-01-29T01:15:21;97762.31;;;-2.16;100.00
45731;BME280;31440;48.584;13.460;2023-01-29T01:21:32;97763.56;;;-1.28;100.00
45731;BME280;31440;48.584;13.460;2023-01-29T01:24:37;97769.09;;;-1.48;100.00
45731;BME280;31440;48.584;13.460;2023-01-29T01:27:41;97767.44;;;-1.80;100.00
45731;BME280;31440;48.584;13.460;2023-01-29T01:30:46;97761.28;;;-1.54;100.00
45731;BME280;31440;48.584;13.460;2023-01-29T01:33:50;97763.13;;;-1.48;100.00
45731;BME280;31440;48.584;13.460;2023-01-29T01:36:57;97767.06;;;-1.61;100.00
45731;BME280;31440;48.584;13.460;2023-01-29T01:40:04;97773.31;;;-2.17;100.00
45731;BME280;31440;48.584;13.460;2023-01-29T01:43:09;97772.53;;;-2.15;100.00
45731;BME280;31440;48.584;13.460;2023-01-29T01:46:14;97773.06;;;-1.93;100.00
45731;BME280;31440;48.584;13.460;2023-01-29T01:49:18;97765.00;;;-1.76;100.00
45731;BME280;31440;48.584;13.460;2023-01-29T01:52:25;97768.97;;;-1.88;100.00
45731;BME280;31440;48.584;13.460;2023-01-29T01:55:30;97777.53;;;-2.19;100.00
45731;BME280;31440;48.584;13.460;2023-01-29T01:58:42;97767.31;;;-1.86;100.00
45731;BME280;31440;48.584;13.460;2023-01-29T02:01:52;97713.06;;;-2.15;100.00
45731;BME280;31440;48.584;13.460;2023-01-29T02:04:57;97773.25;;;-1.87;100.00
45731;BME280;31440;48.584;13.460;2023-01-29T02:08:33;97777.84;;;-2.07;100.00
45731;BME280;31440;48.584;13.460;2023-01-29T02:11:58;97772.78;;;-2.06;100.00
45731;BME280;31440;48.584;13.460;2023-01-29T02:15:03;97770.84;;;-2.14;100.00
45731;BME280;31440;48.584;13.460;2023-01-29T02:18:08;97773.47;;;-2.44;100.00
45731;BME280;31440;48.584;13.460;2023-01-29T02:25:11;97761.09;;;-2.30;100.00
45731;BME280;31440;48.584;13.460;2023-01-29T02:35:30;97778.78;;;-2.37;100.00
45731;BME280;31440;48.584;13.460;2023-01-29T02:42:01;97784.34;;;-2.81;100.00
45731;BME280;31440;48.584;13.460;2023-01-29T02:48:18;97776.22;;;-2.68;100.00
45731;BME280;31440;48.584;13.460;2023-01-29T02:54:44;97781.34;;;-2.96;100.00
45731;BME280;31440;48.584;13.460;2023-01-29T02:57:54;97781.56;;;-2.89;100.00
45731;BME280;31440;48.584;13.460;2023-01-29T03:01:06;97774.09;;;-2.83;100.00
45731;BME280;31440;48.584;13.460;2023-01-29T03:07:25;97769.34;;;-3.00;100.00
45731;BME280;31440;48.584;13.460;2023-01-29T03:11:02;97778.47;;;-2.79;100.00
45731;BME280;31440;48.584;13.460;2023-01-29T03:14:11;97769.19;;;-2.77;100.00
45731;BME280;31440;48.584;13.460;2023-01-29T03:17:21;97763.34;;;-2.74;100.00
45731;BME280;31440;48.584;13.460;2023-01-29T03:20:32;97775.69;;;-2.86;100.00
45731;BME280;31440;48.584;13.460;2023-01-29T03:23:39;97778.19;;;-2.88;100.00
45731;BME280;31440;48.584;13.460;2023-01-29T03:27:07;97782.41;;;-2.88;100.00
45731;BME280;31440;48.584;13.460;2023-01-29T03:30:34;97783.38;;;-3.42;100.00
45731;BME280;31440;48.584;13.460;2023-01-29T03:34:16;97781.69;;;-3.14;100.00
45731;BME280;31440;48.584;13.460;2023-01-29T03:37:41;97792.81;;;-3.11;100.00
45731;BME280;31440;48.584;13.460;2023-01-29T03:40:57;97788.22;;;-2.94;100.00
45731;BME280;31440;48.584;13.460;2023-01-29T03:47:21;97794.56;;;-3.10;100.00
45731;BME280;31440;48.584;13.460;2023-01-29T03:50:39;97789.38;;;-3.13;100.00
45731;BME280;31440;48.584;13.460;2023-01-29T03:57:11;97783.00;;;-2.98;100.00
45731;BME280;31440;48.584;13.460;2023-01-29T04:00:31;97783.75;;;-2.73;100.00
45731;BME280;31440;48.584;13.460;2023-01-29T04:03:48;97784.09;;;-2.89;100.00
45731;BME280;31440;48.584;13.460;2023-01-29T04:06:58;97790.22;;;-2.54;100.00
45731;BME280;31440;48.584;13.460;2023-01-29T04:10:10;97765.41;;;-2.91;100.00
45731;BME280;31440;48.584;13.460;2023-01-29T04:13:16;97798.75;;;-2.82;100.00
45731;BME280;31440;48.584;13.460;2023-01-29T04:16:33;97798.63;;;-2.56;100.00
45731;BME280;31440;48.584;13.460;2023-01-29T04:19:56;97794.03;;;-2.68;100.00
45731;BME280;31440;48.584;13.460;2023-01-29T04:23:05;97802.19;;;-3.10;100.00
45731;BME280;31440;48.584;13.460;2023-01-29T04:29:43;97795.28;;;-2.84;100.00
45731;BME280;31440;48.584;13.460;2023-01-29T04:36:37;97798.84;;;-3.35;100.00
45731;BME280;31440;48.584;13.460;2023-01-29T04:43:05;97785.56;;;-3.25;100.00
45731;BME280;31440;48.584;13.460;2023-01-29T04:46:18;97789.47;;;-3.10;100.00
45731;BME280;31440;48.584;13.460;2023-01-29T04:49:44;97776.66;;;-3.40;100.00
45731;BME280;31440;48.584;13.460;2023-01-29T04:56:55;97775.75;;;-3.42;100.00
45731;BME280;31440;48.584;13.460;2023-01-29T05:00:20;97778.22;;;-3.45;100.00
45731;BME280;31440;48.584;13.460;2023-01-29T05:03:28;97786.72;;;-3.71;100.00
45731;BME280;31440;48.584;13.460;2023-01-29T05:06:34;97777.16;;;-3.51;100.00
45731;BME280;31440;48.584;13.460;2023-01-29T05:09:43;97784.34;;;-3.38;100.00
45731;BME280;31440;48.584;13.460;2023-01-29T05:12:54;97783.78;;;-3.29;100.00
45731;BME280;31440;48.584;13.460;2023-01-29T05:16:13;97779.13;;;-3.43;100.00
45731;BME280;31440;48.584;13.460;2023-01-29T05:22:26;97782.22;;;-3.24;100.00
45731;BME280;31440;48.584;13.460;2023-01-29T05:25:32;97793.94;;;-3.56;100.00
45731;BME280;31440;48.584;13.460;2023-01-29T05:28:36;97792.63;;;-3.45;100.00
45731;BME280;31440;48.584;13.460;2023-01-29T05:31:43;97793.75;;;-3.35;100.00
45731;BME280;31440;48.584;13.460;2023-01-29T05:34:48;97805.34;;;-3.45;100.00
45731;BME280;31440;48.584;13.460;2023-01-29T05:37:54;97804.34;;;-3.22;100.00
45731;BME280;31440;48.584;13.460;2023-01-29T05:40:59;97795.16;;;-3.45;100.00
45731;BME280;31440;48.584;13.460;2023-01-29T05:44:04;97800.81;;;-3.54;100.00
45731;BME280;31440;48.584;13.460;2023-01-29T05:47:08;97810.47;;;-3.70;100.00
45731;BME280;31440;48.584;13.460;2023-01-29T05:50:13;97803.63;;;-3.46;100.00
45731;BME280;31440;48.584;13.460;2023-01-29T05:53:19;97800.97;;;-3.21;100.00
45731;BME280;31440;48.584;13.460;2023-01-29T05:56:23;97805.94;;;-3.52;100.00
45731;BME280;31440;48.584;13.460;2023-01-29T05:59:28;97797.94;;;-3.37;100.00
45731;BME280;31440;48.584;13.460;2023-01-29T06:02:34;97798.34;;;-3.78;100.00
45731;BME280;31440;48.584;13.460;2023-01-29T06:05:39;97804.25;;;-3.79;100.00
45731;BME280;31440;48.584;13.460;2023-01-29T06:11:50;97803.75;;;-3.94;100.00
45731;BME280;31440;48.584;13.460;2023-01-29T06:14:54;97807.56;;;-4.06;100.00
45731;BME280;31440;48.584;13.460;2023-01-29T06:17:59;97810.00;;;-4.10;100.00
45731;BME280;31440;48.584;13.460;2023-01-29T06:21:06;97810.88;;;-4.09;100.00
45731;BME280;31440;48.584;13.460;2023-01-29T06:24:10;97820.16;;;-4.10;100.00
45731;BME280;31440;48.584;13.460;2023-01-29T06:27:15;97809.84;;;-3.89;100.00
45731;BME280;31440;48.584;13.460;2023-01-29T06:30:22;97770.94;;;-4.13;100.00
45731;BME280;31440;48.584;13.460;2023-01-29T06:33:26;97810.94;;;-3.82;100.00
45731;BME280;31440;48.584;13.460;2023-01-29T06:36:31;97813.69;;;-4.01;100.00
45731;BME280;31440;48.584;13.460;2023-01-29T06:39:35;97810.94;;;-3.82;100.00
45731;BME280;31440;48.584;13.460;2023-01-29T06:42:40;97813.59;;;-3.52;100.00
45731;BME280;31440;48.584;13.460;2023-01-29T06:45:47;97807.44;;;-3.59;100.00
45731;BME280;31440;48.584;13.460;2023-01-29T06:48:51;97813.44;;;-3.57;100.00
45731;BME280;31440;48.584;13.460;2023-01-29T06:51:56;97806.72;;;-3.28;100.00
45731;BME280;31440;48.584;13.460;2023-01-29T06:55:01;97808.13;;;-3.64;100.00
45731;BME280;31440;48.584;13.460;2023-01-29T06:58:10;97807.19;;;-3.66;100.00
45731;BME280;31440;48.584;13.460;2023-01-29T07:01:15;97798.00;;;-3.63;100.00
45731;BME280;31440;48.584;13.460;2023-01-29T07:04:38;97797.88;;;-3.39;100.00
45731;BME280;31440;48.584;13.460;2023-01-29T07:07:44;97801.25;;;-3.67;100.00
45731;BME280;31440;48.584;13.460;2023-01-29T07:10:49;97795.88;;;-3.49;100.00
45731;BME280;31440;48.584;13.460;2023-01-29T07:13:54;97799.47;;;-3.43;100.00
45731;BME280;31440;48.584;13.460;2023-01-29T07:16:58;97797.72;;;-3.45;100.00
45731;BME280;31440;48.584;13.460;2023-01-29T07:20:04;97794.97;;;-3.51;100.00
45731;BME280;31440;48.584;13.460;2023-01-29T07:23:11;97789.78;;;-3.27;100.00
45731;BME280;31440;48.584;13.460;2023-01-29T07:26:16;97783.25;;;-3.73;100.00
45731;BME280;31440;48.584;13.460;2023-01-29T07:29:20;97779.56;;;-3.29;100.00
45731;BME280;31440;48.584;13.460;2023-01-29T07:32:27;97779.66;;;-3.26;100.00
45731;BME280;31440;48.584;13.460;2023-01-29T07:35:35;97784.31;;;-3.11;100.00
45731;BME280;31440;48.584;13.460;2023-01-29T07:38:40;97785.56;;;-3.27;100.00
45731;BME280;31440;48.584;13.460;2023-01-29T07:41:45;97801.97;;;-3.96;100.00
45731;BME280;31440;48.584;13.460;2023-01-29T07:44:52;97795.63;;;-3.57;100.00
45731;BME280;31440;48.584;13.460;2023-01-29T07:47:57;97796.19;;;-3.38;100.00
45731;BME280;31440;48.584;13.460;2023-01-29T07:51:02;97804.94;;;-3.57;100.00
45731;BME280;31440;48.584;13.460;2023-01-29T07:54:06;97753.56;;;-3.47;100.00
45731;BME280;31440;48.584;13.460;2023-01-29T07:57:11;97786.19;;;-3.34;100.00
45731;BME280;31440;48.584;13.460;2023-01-29T08:00:16;97803.06;;;-3.36;100.00
45731;BME280;31440;48.584;13.460;2023-01-29T08:03:21;97809.81;;;-3.10;100.00
45731;BME280;31440;48.584;13.460;2023-01-29T08:06:26;97800.84;;;-3.25;100.00
45731;BME280;31440;48.584;13.460;2023-01-29T08:09:31;97762.41;;;-3.34;100.00
45731;BME280;31440;48.584;13.460;2023-01-29T08:12:36;97810.84;;;-3.31;100.00
45731;BME280;31440;48.584;13.460;2023-01-29T08:15:44;97823.72;;;-3.25;100.00
45731;BME280;31440;48.584;13.460;2023-01-29T08:18:49;97825.19;;;-3.05;100.00
45731;BME280;31440;48.584;13.460;2023-01-29T08:21:54;97835.97;;;-3.41;100.00
45731;BME280;31440;48.584;13.460;2023-01-29T08:24:58;97839.47;;;-3.37;100.00
45731;BME280;31440;48.584;13.460;2023-01-29T08:28:11;97841.25;;;-3.34;100.00
45731;BME280;31440;48.584;13.460;2023-01-29T08:31:18;97849.00;;;-3.31;100.00
45731;BME280;31440;48.584;13.460;2023-01-29T08:34:26;97851.53;;;-3.31;100.00
45731;BME280;31440;48.584;13.460;2023-01-29T08:37:30;97855.59;;;-3.36;100.00
45731;BME280;31440;48.584;13.460;2023-01-29T08:40:35;97847.69;;;-3.19;100.00
45731;BME280;31440;48.584;13.460;2023-01-29T08:46:46;97857.97;;;-3.16;100.00
45731;BME280;31440;48.584;13.460;2023-01-29T08:49:50;97855.91;;;-3.27;100.00
45731;BME280;31440;48.584;13.460;2023-01-29T08:52:58;97868.75;;;-3.23;100.00
45731;BME280;31440;48.584;13.460;2023-01-29T08:56:04;97883.19;;;-3.22;100.00
45731;BME280;31440;48.584;13.460;2023-01-29T08:59:09;97874.38;;;-3.33;100.00
45731;BME280;31440;48.584;13.460;2023-01-29T09:05:20;97869.25;;;-3.08;100.00
45731;BME280;31440;48.584;13.460;2023-01-29T09:08:24;97857.03;;;-2.89;100.00
45731;BME280;31440;48.584;13.460;2023-01-29T09:11:29;97861.81;;;-2.72;100.00
45731;BME280;31440;48.584;13.460;2023-01-29T09:14:33;97857.44;;;-2.77;100.00
45731;BME280;31440;48.584;13.460;2023-01-29T09:17:38;97868.09;;;-2.60;99.24
45731;BME280;31440;48.584;13.460;2023-01-29T09:20:44;97872.50;;;-2.83;100.00
45731;BME280;31440;48.584;13.460;2023-01-29T09:23:48;97888.28;;;-2.66;100.00
45731;BME280;31440;48.584;13.460;2023-01-29T09:26:53;97877.34;;;-2.92;100.00
45731;BME280;31440;48.584;13.460;2023-01-29T09:29:57;97881.00;;;-2.83;100.00
45731;BME280;31440;48.584;13.460;2023-01-29T09:36:08;97875.75;;;-2.60;100.00
45731;BME280;31440;48.584;13.460;2023-01-29T09:39:12;97883.34;;;-2.89;100.00
45731;BME280;31440;48.584;13.460;2023-01-29T09:42:45;97884.53;;;-2.49;100.00
45731;BME280;31440;48.584;13.460;2023-01-29T09:46:06;97893.84;;;-2.50;100.00
45731;BME280;31440;48.584;13.460;2023-01-29T09:52:35;97880.47;;;-2.13;100.00
45731;BME280;31440;48.584;13.460;2023-01-29T09:56:03;97873.16;;;-2.01;100.00
45731;BME280;31440;48.584;13.460;2023-01-29T10:05:44;97861.91;;;-1.76;100.00
45731;BME280;31440;48.584;13.460;2023-01-29T10:15:58;97864.53;;;-1.73;100.00
45731;BME280;31440;48.584;13.460;2023-01-29T10:25:48;97846.13;;;-1.61;97.67
45731;BME280;31440;48.584;13.460;2023-01-29T10:28:56;97807.34;;;-1.48;99.77
45731;BME280;31440;48.584;13.460;2023-01-29T10:32:01;97825.25;;;-1.79;94.28
45731;BME280;31440;48.584;13.460;2023-01-29T10:35:20;97822.97;;;-1.70;96.35
45731;BME280;31440;48.584;13.460;2023-01-29T10:48:38;97798.22;;;-0.60;87.28
45731;BME280;31440;48.584;13.460;2023-01-29T10:58:40;97802.59;;;-1.33;89.52
45731;BME280;31440;48.584;13.460;2023-01-29T11:01:50;97805.50;;;-0.35;90.60
45731;BME280;31440;48.584;13.460;2023-01-29T11:04:54;97807.94;;;-0.83;95.23
45731;BME280;31440;48.584;13.460;2023-01-29T11:08:17;97819.06;;;-1.18;100.00
45731;BME280;31440;48.584;13.460;2023-01-29T11:11:33;97821.25;;;-1.35;95.13
45731;BME280;31440;48.584;13.460;2023-01-29T11:15:04;97813.25;;;-1.50;95.12
45731;BME280;31440;48.584;13.460;2023-01-29T11:18:12;97807.66;;;-1.70;94.75
45731;BME280;31440;48.584;13.460;2023-01-29T11:21:18;97793.34;;;-1.98;94.87
45731;BME280;31440;48.584;13.460;2023-01-29T11:27:32;97774.41;;;-1.37;93.66
45731;BME280;31440;48.584;13.460;2023-01-29T11:30:40;97770.47;;;-1.23;93.94
45731;BME280;31440;48.584;13.460;2023-01-29T11:33:46;97763.28;;;-1.02;95.83
45731;BME280;31440;48.584;13.460;2023-01-29T11:37:02;97770.09;;;-1.40;93.88
45731;BME280;31440;48.584;13.460;2023-01-29T11:43:30;97745.78;;;-1.24;91.34
45731;BME280;31440;48.584;13.460;2023-01-29T11:46:38;97739.13;;;-1.17;94.29
45731;BME280;31440;48.584;13.460;2023-01-29T11:52:58;97731.84;;;-2.12;100.00
45731;BME280;31440;48.584;13.460;2023-01-29T11:56:14;97723.66;;;-2.00;95.57
45731;BME280;31440;48.584;13.460;2023-01-29T11:59:32;97702.81;;;-1.84;92.77
45731;BME280;31440;48.584;13.460;2023-01-29T12:05:57;97725.34;;;-1.64;93.28
45731;BME280;31440;48.584;13.460;2023-01-29T12:09:08;97707.50;;;-1.64;92.06
45731;BME280;31440;48.584;13.460;2023-01-29T12:15:32;97717.03;;;-1.56;94.35
45731;BME280;31440;48.584;13.460;2023-01-29T12:18:41;97715.34;;;-1.91;96.62
45731;BME280;31440;48.584;13.460;2023-01-29T12:24:58;97714.66;;;-1.48;99.34
45731;BME280;31440;48.584;13.460;2023-01-29T12:28:46;97710.41;;;-1.07;93.63
45731;BME280;31440;48.584;13.460;2023-01-29T12:35:25;97702.84;;;-1.43;94.11
45731;BME280;31440;48.584;13.460;2023-01-29T12:38:32;97665.09;;;-1.97;97.96
45731;BME280;31440;48.584;13.460;2023-01-29T12:41:42;97694.63;;;-1.69;100.00
45731;BME280;31440;48.584;13.460;2023-01-29T12:44:56;97688.34;;;-1.46;100.00
45731;BME280;31440;48.584;13.460;2023-01-29T12:48:07;97680.94;;;-1.73;97.51
45731;BME280;31440;48.584;13.460;2023-01-29T12:51:17;97674.84;;;-2.15;100.00
45731;BME280;31440;48.584;13.460;2023-01-29T12:54:32;97659.28;;;-2.27;97.90
45731;BME280;31440;48.584;13.460;2023-01-29T12:57:47;97654.06;;;-2.32;98.06
45731;BME280;31440;48.584;13.460;2023-01-29T13:00:56;97637.91;;;-1.96;99.32
45731;BME280;31440;48.584;13.460;2023-01-29T13:04:13;97591.13;;;-1.98;98.54
45731;BME280;31440;48.584;13.460;2023-01-29T13:10:32;97640.13;;;-1.74;99.30
45731;BME280;31440;48.584;13.460;2023-01-29T13:13:47;97655.03;;;-1.91;100.00
45731;BME280;31440;48.584;13.460;2023-01-29T13:17:17;97664.03;;;-1.69;100.00
45731;BME280;31440;48.584;13.460;2023-01-29T13:23:36;97663.34;;;-1.60;100.00
45731;BME280;31440;48.584;13.460;2023-01-29T13:26:49;97644.72;;;-1.58;100.00
45731;BME280;31440;48.584;13.460;2023-01-29T13:29:54;97649.88;;;-1.55;100.00
45731;BME280;31440;48.584;13.460;2023-01-29T13:33:02;97648.38;;;-1.47;100.00
45731;BME280;31440;48.584;13.460;2023-01-29T13:36:17;97653.78;;;-1.32;100.00
45731;BME280;31440;48.584;13.460;2023-01-29T13:39:34;97650.03;;;-1.49;100.00
45731;BME280;31440;48.584;13.460;2023-01-29T13:42:48;97648.75;;;-1.28;99.82
45731;BME280;31440;48.584;13.460;2023-01-29T13:45:53;97646.03;;;-1.36;100.00
45731;BME280;31440;48.584;13.460;2023-01-29T13:49:00;97601.03;;;-1.73;100.00
45731;BME280;31440;48.584;13.460;2023-01-29T14:11:46;97629.66;;;-1.86;100.00
45731;BME280;31440;48.584;13.460;2023-01-29T14:18:22;97630.88;;;-1.69;100.00
45731;BME280;31440;48.584;13.460;2023-01-29T14:21:31;97627.69;;;-1.18;100.00
45731;BME280;31440;48.584;13.460;2023-01-29T14:24:36;97625.72;;;-1.72;100.00
45731;BME280;31440;48.584;13.460;2023-01-29T14:27:46;97604.31;;;-1.38;100.00
45731;BME280;31440;48.584;13.460;2023-01-29T14:30:51;97617.34;;;-1.24;100.00
45731;BME280;31440;48.584;13.460;2023-01-29T14:34:00;97614.94;;;-1.17;100.00
45731;BME280;31440;48.584;13.460;2023-01-29T14:40:22;97621.50;;;-1.29;100.00
45731;BME280;31440;48.584;13.460;2023-01-29T14:43:29;97626.31;;;-1.84;100.00
45731;BME280;31440;48.584;13.460;2023-01-29T14:49:49;97622.84;;;-1.48;100.00
45731;BME280;31440;48.584;13.460;2023-01-29T14:56:28;97625.44;;;-1.86;100.00
45731;BME280;31440;48.584;13.460;2023-01-29T14:59:43;97611.09;;;-1.79;100.00
45731;BME280;31440;48.584;13.460;2023-01-29T15:02:51;97613.53;;;-2.23;100.00
45731;BME280;31440;48.584;13.460;2023-01-29T15:06:06;97615.69;;;-1.64;100.00
45731;BME280;31440;48.584;13.460;2023-01-29T15:09:39;97618.00;;;-1.35;100.00
45731;BME280;31440;48.584;13.460;2023-01-29T15:16:12;97607.13;;;-1.24;100.00
45731;BME280;31440;48.584;13.460;2023-01-29T15:19:27;97606.88;;;-1.38;100.00
45731;BME280;31440;48.584;13.460;2023-01-29T15:22:41;97597.06;;;-1.60;100.00
45731;BME280;31440;48.584;13.460;2023-01-29T15:25:46;97615.94;;;-1.52;100.00
45731;BME280;31440;48.584;13.460;2023-01-29T15:28:57;97621.69;;;-2.02;100.00
45731;BME280;31440;48.584;13.460;2023-01-29T15:32:14;97616.34;;;-1.73;100.00
45731;BME280;31440;48.584;13.460;2023-01-29T15:35:31;97619.31;;;-1.92;100.00
45731;BME280;31440;48.584;13.460;2023-01-29T15:38:37;97617.16;;;-2.13;100.00
45731;BME280;31440;48.584;13.460;2023-01-29T15:41:42;97612.97;;;-2.10;100.00
45731;BME280;31440;48.584;13.460;2023-01-29T15:44:47;97615.59;;;-2.07;100.00
45731;BME280;31440;48.584;13.460;2023-01-29T15:47:59;97617.28;;;-2.07;100.00
45731;BME280;31440;48.584;13.460;2023-01-29T15:51:05;97607.34;;;-2.32;100.00
45731;BME280;31440;48.584;13.460;2023-01-29T15:54:14;97609.78;;;-2.01;100.00
45731;BME280;31440;48.584;13.460;2023-01-29T15:57:23;97603.69;;;-1.69;100.00
45731;BME280;31440;48.584;13.460;2023-01-29T16:00:31;97548.38;;;-2.12;100.00
45731;BME280;31440;48.584;13.460;2023-01-29T16:03:36;97605.13;;;-1.80;100.00
45731;BME280;31440;48.584;13.460;2023-01-29T16:06:41;97599.72;;;-1.95;100.00
45731;BME280;31440;48.584;13.460;2023-01-29T16:09:47;97600.47;;;-1.60;100.00
45731;BME280;31440;48.584;13.460;2023-01-29T16:12:52;97590.63;;;-1.84;100.00
45731;BME280;31440;48.584;13.460;2023-01-29T16:16:21;97599.94;;;-1.86;100.00
45731;BME280;31440;48.584;13.460;2023-01-29T16:19:28;97608.13;;;-1.99;100.00
45731;BME280;31440;48.584;13.460;2023-01-29T16:22:34;97613.47;;;-1.88;100.00
45731;BME280;31440;48.584;13.460;2023-01-29T16:25:40;97613.34;;;-1.93;100.00
45731;BME280;31440;48.584;13.460;2023-01-29T16:28:45;97607.63;;;-1.84;100.00
45731;BME280;31440;48.584;13.460;2023-01-29T16:34:57;97610.31;;;-1.77;100.00
45731;BME280;31440;48.584;13.460;2023-01-29T16:38:18;97611.34;;;-1.69;100.00
45731;BME280;31440;48.584;13.460;2023-01-29T16:41:28;97619.06;;;-1.66;100.00
45731;BME280;31440;48.584;13.460;2023-01-29T16:44:35;97620.59;;;-1.74;100.00
45731;BME280;31440;48.584;13.460;2023-01-29T16:47:40;97632.03;;;-1.94;100.00
45731;BME280;31440;48.584;13.460;2023-01-29T16:50:46;97630.03;;;-1.70;100.00
45731;BME280;31440;48.584;13.460;2023-01-29T16:54:12;97595.63;;;-1.88;100.00
45731;BME280;31440;48.584;13.460;2023-01-29T16:57:24;97625.94;;;-1.61;100.00
45731;BME280;31440;48.584;13.460;2023-01-29T17:00:29;97631.81;;;-1.64;100.00
45731;BME280;31440;48.584;13.460;2023-01-29T17:03:35;97631.56;;;-1.37;100.00
45731;BME280;31440;48.584;13.460;2023-01-29T17:06:43;97626.75;;;-1.62;100.00
45731;BME280;31440;48.584;13.460;2023-01-29T17:09:53;97625.75;;;-1.71;100.00
45731;BME280;31440;48.584;13.460;2023-01-29T17:13:07;97631.78;;;-1.67;100.00
45731;BME280;31440;48.584;13.460;2023-01-29T17:19:22;97629.28;;;-1.66;100.00
45731;BME280;31440;48.584;13.460;2023-01-29T17:25:34;97629.69;;;-1.85;100.00
45731;BME280;31440;48.584;13.460;2023-01-29T17:28:42;97621.50;;;-1.70;100.00
45731;BME280;31440;48.584;13.460;2023-01-29T17:31:47;97627.03;;;-1.89;100.00
45731;BME280;31440;48.584;13.460;2023-01-29T17:34:52;97621.88;;;-1.92;100.00
45731;BME280;31440;48.584;13.460;2023-01-29T17:37:56;97615.09;;;-1.92;100.00
45731;BME280;31440;48.584;13.460;2023-01-29T17:44:08;97626.59;;;-2.09;100.00
45731;BME280;31440;48.584;13.460;2023-01-29T17:47:13;97621.25;;;-1.81;100.00
45731;BME280;31440;48.584;13.460;2023-01-29T17:50:22;97631.38;;;-2.23;100.00
45731;BME280;31440;48.584;13.460;2023-01-29T17:53:27;97625.25;;;-1.93;100.00
45731;BME280;31440;48.584;13.460;2023-01-29T17:56:49;97630.25;;;-1.59;100.00
45731;BME280;31440;48.584;13.460;2023-01-29T17:59:53;97629.16;;;-1.29;100.00
45731;BME280;31440;48.584;13.460;2023-01-29T18:02:58;97632.72;;;-1.21;99.95
45731;BME280;31440;48.584;13.460;2023-01-29T18:06:06;97631.81;;;-1.66;100.00
45731;BME280;31440;48.584;13.460;2023-01-29T18:09:14;97636.56;;;-1.82;100.00
45731;BME280;31440;48.584;13.460;2023-01-29T18:12:19;97641.66;;;-1.81;100.00
45731;BME280;31440;48.584;13.460;2023-01-29T18:15:23;97635.44;;;-1.54;100.00
45731;BME280;31440;48.584;13.460;2023-01-29T18:18:28;97633.16;;;-1.81;100.00
45731;BME280;31440;48.584;13.460;2023-01-29T18:21:33;97633.03;;;-1.87;100.00
45731;BME280;31440;48.584;13.460;2023-01-29T18:24:38;97634.13;;;-1.36;100.00
45731;BME280;31440;48.584;13.460;2023-01-29T18:27:44;97605.38;;;-2.08;100.00
45731;BME280;31440;48.584;13.460;2023-01-29T18:30:49;97633.34;;;-1.74;100.00
45731;BME280;31440;48.584;13.460;2023-01-29T18:33:54;97626.19;;;-1.51;100.00
45731;BME280;31440;48.584;13.460;2023-01-29T18:36:58;97621.06;;;-1.90;100.00
45731;BME280;31440;48.584;13.460;2023-01-29T18:40:03;97625.38;;;-1.87;100.00
45731;BME280;31440;48.584;13.460;2023-01-29T18:43:09;97617.81;;;-1.84;100.00
45731;BME280;31440;48.584;13.460;2023-01-29T18:46:13;97621.00;;;-1.93;100.00
45731;BME280;31440;48.584;13.460;2023-01-29T18:52:24;97612.03;;;-1.76;100.00
45731;BME280;31440;48.584;13.460;2023-01-29T18:55:29;97617.56;;;-1.95;100.00
45731;BME280;31440;48.584;13.460;2023-01-29T18:58:34;97611.03;;;-2.21;100.00
45731;BME280;31440;48.584;13.460;2023-01-29T19:01:40;97621.44;;;-2.47;100.00
45731;BME280;31440;48.584;13.460;2023-01-29T19:04:45;97594.59;;;-1.96;100.00
45731;BME280;31440;48.584;13.460;2023-01-29T19:07:50;97611.53;;;-2.00;100.00
45731;BME280;31440;48.584;13.460;2023-01-29T19:10:55;97612.56;;;-1.90;100.00
45731;BME280;31440;48.584;13.460;2023-01-29T19:14:01;97606.38;;;-1.61;100.00
45731;BME280;31440;48.584;13.460;2023-01-29T19:17:05;97594.81;;;-1.87;100.00
45731;BME280;31440;48.584;13.460;2023-01-29T19:20:10;97614.06;;;-1.98;100.00